createdAt,value
2019-05-01T00:03:14.033Z,102226.56
2019-05-01T00:08:17.267Z,102226.56
2019-05-01T00:13:19.059Z,102220.07
2019-05-01T00:18:23.083Z,102217.09
2019-05-01T00:23:25.104Z,102215.30
2019-05-01T00:28:26.909Z,102208.06
2019-05-01T00:33:28.820Z,102201.40
2019-05-01T00:38:30.753Z,102199.53
2019-05-01T00:43:32.603Z,102189.61
2019-05-01T00:48:34.499Z,102193.41
2019-05-01T00:53:36.682Z,102191.23
2019-05-01T00:59:01.041Z,102187.25
2019-05-01T01:04:03.274Z,102177.06
2019-05-01T01:09:06.196Z,102167.96
2019-05-01T01:14:08.100Z,102167.50
2019-05-01T01:19:14.295Z,102164.38
2019-05-01T01:24:16.493Z,102159.55
2019-05-01T01:29:21.474Z,102158.50
2019-05-01T01:34:25.760Z,102149.37
2019-05-01T01:39:27.671Z,102143.20
2019-05-01T01:44:38.487Z,102143.13
2019-05-01T01:49:40.374Z,102135.83
2019-05-01T01:54:42.537Z,102128.89
2019-05-01T01:59:44.944Z,102121.31
2019-05-01T02:05:05.465Z,102122.50
2019-05-01T02:10:07.930Z,102119.72
2019-05-01T02:15:09.787Z,102122.80
2019-05-01T02:20:12.475Z,102116.70
2019-05-01T02:25:15.271Z,102111.28
2019-05-01T02:30:19.008Z,102111.27
2019-05-01T02:35:22.003Z,102112.44
2019-05-01T02:40:48.060Z,102109.78
2019-05-01T02:45:56.125Z,102112.69
2019-05-01T02:51:02.269Z,102104.20
2019-05-01T02:56:34.664Z,102096.61
2019-05-01T03:01:46.264Z,102096.61
2019-05-01T03:06:41.557Z,102096.37
2019-05-01T03:11:46.049Z,102095.52
2019-05-01T03:16:51.776Z,102096.84
2019-05-01T03:22:03.338Z,102093.47
2019-05-01T03:27:05.637Z,102091.37
2019-05-01T03:32:19.041Z,102084.98
2019-05-01T03:37:12.921Z,102085.46
2019-05-01T03:42:15.978Z,102079.17
2019-05-01T03:47:18.257Z,102082.06
2019-05-01T03:52:20.863Z,102074.53
2019-05-01T03:57:22.775Z,102077.06
2019-05-01T04:02:45.254Z,102067.39
2019-05-01T04:07:47.338Z,102071.27
2019-05-01T04:12:49.321Z,102073.44
2019-05-01T04:17:55.739Z,102067.50
2019-05-01T04:22:57.877Z,102067.01
2019-05-01T04:28:03.335Z,102068.44
2019-05-01T04:33:08.650Z,102060.08
2019-05-01T04:38:10.953Z,102068.05
2019-05-01T04:43:12.845Z,102068.05
2019-05-01T04:48:14.747Z,102070.72
2019-05-01T04:53:17.697Z,102070.72
2019-05-01T04:58:19.687Z,102065.86
2019-05-01T05:03:23.572Z,102068.86
2019-05-01T05:08:25.464Z,102068.03
2019-05-01T05:13:32.391Z,102065.45
2019-05-01T05:18:34.418Z,102066.41
2019-05-01T05:23:36.778Z,102065.56
2019-05-01T05:28:38.991Z,102065.56
2019-05-01T05:33:43.606Z,102063.61
2019-05-01T05:39:00.005Z,102067.27
2019-05-01T05:44:07.142Z,102072.38
2019-05-01T05:49:11.655Z,102069.67
2019-05-01T05:54:37.019Z,102074.52
2019-05-01T05:59:44.780Z,102074.70
2019-05-01T06:05:16.204Z,102076.83
2019-05-01T06:10:33.201Z,102074.65
2019-05-01T06:16:03.330Z,102069.91
2019-05-01T06:21:24.703Z,102068.60
2019-05-01T06:26:32.260Z,102063.70
2019-05-01T06:31:32.928Z,102061.78
2019-05-01T06:36:35.070Z,102063.95
2019-05-01T06:41:42.965Z,102061.59
2019-05-01T06:47:08.150Z,102056.96
2019-05-01T06:52:11.902Z,102058.94
2019-05-01T06:57:14.101Z,102046.87
2019-05-01T07:02:20.875Z,102052.59
2019-05-01T07:07:25.538Z,102049.20
2019-05-01T07:12:30.031Z,102043.66
2019-05-01T07:17:32.632Z,102048.80
2019-05-01T07:22:37.152Z,102046.50
2019-05-01T07:27:40.594Z,102053.94
2019-05-01T07:32:42.786Z,102048.92
2019-05-01T07:37:45.015Z,102048.16
2019-05-01T07:42:49.678Z,102053.03
2019-05-01T07:47:52.119Z,102053.41
2019-05-01T07:52:54.075Z,102053.58
2019-05-01T07:57:57.194Z,102053.22
2019-05-01T08:03:02.588Z,102053.44
2019-05-01T08:08:07.422Z,102047.41
2019-05-01T08:13:06.758Z,102049.98
2019-05-01T08:18:36.188Z,102047.52
2019-05-01T08:23:37.669Z,102042.84
2019-05-01T08:29:03.057Z,102043.94
2019-05-01T08:34:08.029Z,102042.92
2019-05-01T08:39:13.920Z,102050.80
2019-05-01T08:44:18.385Z,102053.05
2019-05-01T08:49:52.919Z,102054.22
2019-05-01T08:54:55.018Z,102054.84
2019-05-01T09:00:00.275Z,102056.11
2019-05-01T09:05:02.831Z,102051.29
2019-05-01T09:10:08.935Z,102044.02
2019-05-01T09:15:12.677Z,102038.95
2019-05-01T09:20:16.673Z,102045.83
2019-05-01T09:25:26.199Z,102050.33
2019-05-01T09:30:34.231Z,102042.22
2019-05-01T09:35:40.181Z,102041.91
2019-05-01T09:40:40.177Z,102043.99
2019-05-01T09:45:44.889Z,102042.55
2019-05-01T09:50:52.815Z,102038.61
2019-05-01T09:56:03.231Z,102045.20
2019-05-01T10:01:07.339Z,102028.85
2019-05-01T10:06:12.847Z,102027.33
2019-05-01T10:11:14.974Z,102029.30
2019-05-01T10:16:17.084Z,102028.88
2019-05-01T10:21:22.403Z,102024.03
2019-05-01T10:26:27.234Z,102019.24
2019-05-01T10:31:47.749Z,102020.42
2019-05-01T10:36:54.644Z,102013.92
2019-05-01T10:41:54.527Z,102007.47
2019-05-01T10:47:01.865Z,102015.60
2019-05-01T10:52:13.606Z,102009.44
2019-05-01T10:57:07.016Z,102007.05
2019-05-01T11:02:11.097Z,102000.27
2019-05-01T11:07:13.026Z,101992.89
2019-05-01T11:12:14.828Z,101991.45
2019-05-01T11:17:16.784Z,101987.84
2019-05-01T11:22:22.685Z,101981.41
2019-05-01T11:27:25.042Z,101976.15
2019-05-01T11:32:35.677Z,101981.21
2019-05-01T11:38:04.276Z,101969.62
2019-05-01T11:43:10.060Z,101970.20
2019-05-01T11:48:11.971Z,101965.56
2019-05-01T11:53:16.074Z,101968.45
2019-05-01T11:58:17.961Z,101957.39
2019-05-01T12:03:19.880Z,101955.02
2019-05-01T12:08:21.852Z,101954.66
2019-05-01T12:13:24.785Z,101954.05
2019-05-01T12:18:26.671Z,101948.03
2019-05-01T12:23:28.539Z,101940.22
2019-05-01T12:28:30.349Z,101945.19
2019-05-01T12:33:37.567Z,101944.48
2019-05-01T12:38:39.465Z,101938.08
2019-05-01T12:43:41.469Z,101937.39
2019-05-01T12:48:44.389Z,101930.00
2019-05-01T12:54:03.906Z,101925.61
2019-05-01T12:59:08.126Z,101926.98
2019-05-01T13:04:09.995Z,101926.05
2019-05-01T13:09:11.911Z,101912.75
2019-05-01T13:14:13.886Z,101914.41
2019-05-01T13:19:15.807Z,101921.86
2019-05-01T13:24:17.919Z,101906.42
2019-05-01T13:29:25.355Z,101897.69
2019-05-01T13:34:27.400Z,101894.56
2019-05-01T13:39:29.291Z,101896.77
2019-05-01T13:44:33.820Z,101884.27
2019-05-01T13:49:35.527Z,101884.08
2019-05-01T13:54:37.465Z,101869.98
2019-05-01T13:59:39.380Z,101867.09
2019-05-01T14:04:44.231Z,101863.61
2019-05-01T14:09:48.522Z,101859.24
2019-05-01T14:14:50.410Z,101851.15
2019-05-01T14:20:02.558Z,101845.91
2019-05-01T14:25:05.809Z,101843.64
2019-05-01T14:30:10.291Z,101832.15
2019-05-01T14:35:12.441Z,101833.73
2019-05-01T14:40:14.527Z,101831.66
2019-05-01T14:45:16.419Z,101828.98
2019-05-01T14:50:18.204Z,101816.30
2019-05-01T14:55:20.123Z,101821.45
2019-05-01T15:00:22.354Z,101824.55
2019-05-01T15:05:25.811Z,101825.27
2019-05-01T15:10:27.592Z,101819.77
2019-05-01T15:15:49.036Z,101816.46
2019-05-01T15:20:50.848Z,101810.52
2019-05-01T15:25:53.086Z,101812.23
2019-05-01T15:30:54.998Z,101809.44
2019-05-01T15:35:57.008Z,101799.21
2019-05-01T15:41:08.431Z,101798.77
2019-05-01T15:46:10.418Z,101789.36
2019-05-01T15:51:14.677Z,101792.69
2019-05-01T15:56:16.520Z,101793.83
2019-05-01T16:01:19.503Z,101793.48
2019-05-01T16:06:21.523Z,101790.53
2019-05-01T16:11:49.198Z,101795.06
2019-05-01T16:16:51.578Z,101793.53
2019-05-01T16:21:53.575Z,101780.02
2019-05-01T16:26:55.307Z,101777.12
2019-05-01T16:31:57.200Z,101772.49
2019-05-01T16:36:59.214Z,101775.52
2019-05-01T16:42:01.197Z,101760.31
2019-05-01T16:47:03.210Z,101767.07
2019-05-01T16:52:06.990Z,101760.88
2019-05-01T16:57:11.853Z,101753.45
2019-05-01T17:02:42.500Z,101744.25
2019-05-01T17:07:56.290Z,101739.20
2019-05-01T17:12:58.091Z,101739.01
2019-05-01T17:18:00.179Z,101730.77
2019-05-01T17:23:02.123Z,101735.17
2019-05-01T17:28:08.231Z,101733.39
2019-05-01T17:33:08.580Z,101721.98
2019-05-01T17:38:10.361Z,101724.31
2019-05-01T17:43:15.489Z,101724.66
2019-05-01T17:48:17.594Z,101719.33
2019-05-01T17:53:19.670Z,101718.39
2019-05-01T17:58:21.555Z,101714.95
2019-05-01T18:03:39.135Z,101717.60
2019-05-01T18:08:41.032Z,101723.32
2019-05-01T18:13:42.852Z,101721.42
2019-05-01T18:18:44.740Z,101723.86
2019-05-01T18:24:02.112Z,101722.03
2019-05-01T18:29:17.577Z,101718.00
2019-05-01T18:34:22.407Z,101719.05
2019-05-01T18:39:43.946Z,101713.26
2019-05-01T18:44:47.578Z,101715.84
2019-05-01T18:49:50.176Z,101712.70
2019-05-01T18:54:52.203Z,101715.37
2019-05-01T18:59:54.157Z,101717.81
2019-05-01T19:04:56.135Z,101702.19
2019-05-01T19:10:00.067Z,101702.19
2019-05-01T19:15:05.520Z,101708.23
2019-05-01T19:20:06.064Z,101707.59
2019-05-01T19:25:10.919Z,101708.53
2019-05-01T19:30:14.910Z,101712.14
2019-05-01T19:35:16.699Z,101704.43
2019-05-01T19:40:18.546Z,101706.23
2019-05-01T19:45:20.573Z,101706.23
2019-05-01T19:50:24.673Z,101705.38
2019-05-01T19:55:26.533Z,101704.89
2019-05-01T20:00:53.573Z,101702.27
2019-05-01T20:05:59.643Z,101694.19
2019-05-01T20:10:59.405Z,101715.53
2019-05-01T20:16:01.294Z,101687.61
2019-05-01T20:21:04.955Z,101692.13
2019-05-01T20:26:07.131Z,101692.13
2019-05-01T20:31:09.081Z,101677.37
2019-05-01T20:36:10.984Z,101687.50
2019-05-01T20:41:15.804Z,101676.12
2019-05-01T20:46:21.505Z,101676.12
2019-05-01T20:51:24.391Z,101684.68
2019-05-01T20:56:46.096Z,101679.80
2019-05-01T21:01:48.040Z,101662.86
2019-05-01T21:07:09.652Z,101662.86
2019-05-01T21:12:11.506Z,101670.84
2019-05-01T21:17:16.197Z,101663.84
2019-05-01T21:22:18.107Z,101666.02
2019-05-01T21:27:19.930Z,101657.41
2019-05-01T21:32:26.149Z,101648.20
2019-05-01T21:37:26.722Z,101648.20
2019-05-01T21:42:28.803Z,101645.62
2019-05-01T21:47:30.746Z,101645.62
2019-05-01T21:52:33.254Z,101633.00
2019-05-01T21:57:38.693Z,101634.74
2019-05-01T22:02:41.511Z,101628.11
2019-05-01T22:07:43.526Z,101628.11
2019-05-01T22:12:49.006Z,101616.64
2019-05-01T22:18:00.130Z,101616.64
2019-05-01T22:23:06.245Z,101616.48
2019-05-01T22:28:13.968Z,101612.87
2019-05-01T22:33:17.982Z,101605.41
2019-05-01T22:38:19.981Z,101604.84
2019-05-01T22:43:22.180Z,101603.37
2019-05-01T22:48:27.131Z,101603.36
2019-05-01T22:53:29.072Z,101596.13
2019-05-01T22:58:33.694Z,101593.32
2019-05-01T23:03:42.445Z,101591.39
2019-05-01T23:08:44.669Z,101580.74
2019-05-01T23:13:46.588Z,101578.94
2019-05-01T23:18:51.914Z,101575.42
2019-05-01T23:23:56.922Z,101571.31
2019-05-01T23:28:58.827Z,101560.95
2019-05-01T23:34:00.890Z,101560.34
2019-05-01T23:39:04.630Z,101559.36
2019-05-01T23:44:06.704Z,101560.48
2019-05-01T23:49:08.696Z,101560.48
2019-05-01T23:54:10.655Z,101558.41
2019-05-01T23:59:12.442Z,101561.70
